Time;durP1;ratioP1;P1;durP2;ratioP2;P2;SDS_P1;SDS_P2;PMS_P1;PMS_P2;Temp;Humidity;BMP_temperature;BMP_pressure;BME280_temperature;BME280_humidity;BME280_pressure;Samples;Min_cycle;Max_cycle;Signal;HPM_P1;HPM_P2
2022/03/03 00:00:14;;;;;;;;;;;;;;;-143.90;100.00;55210.50;2103385;28;19932;-63
2022/03/03 00:01:34;;;;;;;;;;;;;;;-143.90;100.00;55206.53;2106319;28;20003;-65
2022/03/03 00:02:55;;;;;;;;;;;;;;;-143.90;100.00;55172.78;2113066;27;20554;-64
2022/03/03 00:04:16;;;;;;;;;;;;;;;-143.90;100.00;55234.31;2108840;27;19919;-65
2022/03/03 00:05:36;;;;;;;;;;;;;;;-143.90;100.00;55222.41;2104370;28;19965;-65
2022/03/03 00:06:57;;;;;;;;;;;;;;;-143.90;100.00;55218.44;2104722;28;20269;-64
2022/03/03 00:08:18;;;;;;;;;;;;;;;-143.90;100.00;55212.50;2103861;28;20027;-64
2022/03/03 00:09:38;;;;;;;;;;;;;;;-143.90;100.00;55234.31;2104087;28;19927;-64
2022/03/03 00:10:59;;;;;;;;;;;;;;;-143.90;100.00;55246.25;2106502;28;19919;-63
2022/03/03 00:12:20;;;;;;;;;;;;;;;-143.90;100.00;55214.47;2114320;27;19919;-64
2022/03/03 00:13:41;;;;;;;;;;;;;;;-143.90;100.00;55210.50;2103950;27;20713;-63
2022/03/03 00:15:03;;;;;;;;;;;;;;;-143.90;100.00;55212.50;2098343;28;20579;-64
2022/03/03 00:16:26;;;;;;;;;;;;;;;-143.90;100.00;55166.81;2096795;28;20084;-63
2022/03/03 00:17:47;;;;;;;;;;;;;;;-143.90;100.00;55182.69;2105612;28;20366;-64
2022/03/03 00:19:07;;;;;;;;;;;;;;;-143.90;100.00;55194.63;2105187;28;20151;-65
2022/03/03 00:20:28;;;;;;;;;;;;;;;-143.90;100.00;55222.41;2106165;28;20322;-64
2022/03/03 00:21:49;;;;;;;;;;;;;;;-143.90;100.00;55254.19;2105315;28;20034;-65
2022/03/03 00:23:09;;;;;;;;;;;;;;;-143.90;100.00;55222.41;2105519;28;19920;-64
2022/03/03 00:24:30;;;;;;;;;;;;;;;-143.90;100.00;55226.38;2105163;28;19963;-64
2022/03/03 00:25:51;;;;;;;;;;;;;;;-143.90;100.00;55214.47;2105088;28;20042;-64
2022/03/03 00:27:12;;;;;;;;;;;;;;;-143.90;100.00;55208.50;2105659;28;19974;-63
2022/03/03 00:28:33;;;;;;;;;;;;;;;-143.90;100.00;55206.53;2107239;28;19927;-64
2022/03/03 00:29:53;;;;;;;;;;;;;;;-143.90;100.00;55166.81;2095633;28;20377;-64
2022/03/03 00:31:14;;;;;;;;;;;;;;;-143.90;100.00;55186.69;2097512;28;19996;-63
2022/03/03 00:32:40;;;;;;;;;;;;;;;-143.90;100.00;55202.56;2105774;28;19920;-64
2022/03/03 00:34:00;;;;;;;;;;;;;;;-143.90;100.00;55190.66;2104719;28;19930;-63
2022/03/03 00:35:21;;;;;;;;;;;;;;;-143.90;100.00;55230.34;2106417;28;19916;-64
2022/03/03 00:36:42;;;;;;;;;;;;;;;-143.90;100.00;55222.41;2105400;28;19924;-64
2022/03/03 00:38:03;;;;;;;;;;;;;;;-143.90;100.00;55214.47;2106516;28;19973;-65
2022/03/03 00:39:24;;;;;;;;;;;;;;;-143.90;100.00;55194.63;2105425;28;19927;-64
2022/03/03 00:40:45;;;;;;;;;;;;;;;-143.90;100.00;55190.66;2105658;28;19982;-65
2022/03/03 00:42:05;;;;;;;;;;;;;;;-143.90;100.00;55204.53;2104993;28;20018;-64
2022/03/03 00:43:26;;;;;;;;;;;;;;;-143.90;100.00;55218.44;2101019;28;19920;-64
2022/03/03 00:44:47;;;;;;;;;;;;;;;-143.90;100.00;55210.50;2104822;28;19923;-62
2022/03/03 00:46:07;;;;;;;;;;;;;;;-143.90;100.00;55190.66;2106291;28;19931;-64
2022/03/03 00:47:28;;;;;;;;;;;;;;;-143.90;100.00;55196.59;2106329;28;19926;-64
2022/03/03 00:48:49;;;;;;;;;;;;;;;-143.90;100.00;55214.47;2104197;28;19960;-64
2022/03/03 00:50:10;;;;;;;;;;;;;;;-143.90;100.00;55194.63;2105224;28;20391;-64
2022/03/03 00:51:31;;;;;;;;;;;;;;;-143.90;100.00;55190.66;2105284;28;19924;-64
2022/03/03 00:52:52;;;;;;;;;;;;;;;-143.90;100.00;55234.31;2105434;28;20014;-64
2022/03/03 00:54:12;;;;;;;;;;;;;;;-143.90;100.00;55186.69;2105588;28;19931;-65
2022/03/03 00:55:33;;;;;;;;;;;;;;;-143.90;100.00;55170.78;2104814;28;20015;-64
2022/03/03 00:56:54;;;;;;;;;;;;;;;-143.90;100.00;55218.44;2096392;28;20011;-64
2022/03/03 00:58:15;;;;;;;;;;;;;;;-143.90;100.00;55214.47;2103956;28;20415;-64
2022/03/03 00:59:35;;;;;;;;;;;;;;;-143.90;100.00;55200.56;2106142;28;19945;-65
2022/03/03 01:00:56;;;;;;;;;;;;;;;-143.90;100.00;55192.63;2105610;28;19920;-64
2022/03/03 01:02:17;;;;;;;;;;;;;;;-143.90;100.00;55176.75;2105017;28;20007;-65
2022/03/03 01:03:38;;;;;;;;;;;;;;;-143.90;100.00;55240.28;2105766;28;19920;-64
2022/03/03 01:04:59;;;;;;;;;;;;;;;-143.90;100.00;55218.44;2104206;28;19920;-64
2022/03/03 01:06:19;;;;;;;;;;;;;;;-143.90;100.00;55194.63;2105909;28;19927;-63
2022/03/03 01:07:40;;;;;;;;;;;;;;;-143.90;100.00;55198.59;2105709;28;19927;-64
2022/03/03 01:09:01;;;;;;;;;;;;;;;-143.90;100.00;55206.53;2105728;28;19920;-65
2022/03/03 01:10:22;;;;;;;;;;;;;;;-143.90;100.00;55202.56;2104235;28;19934;-65
2022/03/03 01:11:42;;;;;;;;;;;;;;;-143.90;100.00;55190.66;2104081;28;19991;-64
2022/03/03 01:13:03;;;;;;;;;;;;;;;-143.90;100.00;55166.81;2103736;28;19924;-65
2022/03/03 01:14:25;;;;;;;;;;;;;;;-143.90;100.00;55198.59;2105306;28;19920;-64
2022/03/03 01:15:46;;;;;;;;;;;;;;;-143.90;100.00;55196.59;2106362;28;19919;-65
2022/03/03 01:17:07;;;;;;;;;;;;;;;-143.90;100.00;55212.50;2105180;28;19924;-64
2022/03/03 01:18:27;;;;;;;;;;;;;;;-143.90;100.00;55234.31;2105705;28;19943;-64
2022/03/03 01:19:48;;;;;;;;;;;;;;;-143.90;100.00;55214.47;2105901;28;19927;-64
2022/03/03 01:21:09;;;;;;;;;;;;;;;-143.90;100.00;55204.53;2105020;28;19926;-65
2022/03/03 01:22:29;;;;;;;;;;;;;;;-143.90;100.00;55186.69;2104658;28;19927;-65
2022/03/03 01:23:50;;;;;;;;;;;;;;;-143.90;100.00;55196.59;2104465;28;19920;-64
2022/03/03 01:25:11;;;;;;;;;;;;;;;-143.90;100.00;55202.56;2105268;28;19959;-65
2022/03/03 01:26:32;;;;;;;;;;;;;;;-143.90;100.00;55210.50;2089167;28;19928;-65
2022/03/03 01:27:52;;;;;;;;;;;;;;;-143.90;100.00;55190.66;2088223;28;19998;-64
2022/03/03 01:29:13;;;;;;;;;;;;;;;-143.90;100.00;55222.41;2087534;28;19974;-64
2022/03/03 01:30:34;;;;;;;;;;;;;;;-143.90;100.00;55170.78;2088461;28;19924;-65
2022/03/03 01:31:54;;;;;;;;;;;;;;;-143.90;100.00;55228.38;2089546;28;20395;-64
2022/03/03 01:33:15;;;;;;;;;;;;;;;-143.90;100.00;55208.50;2090078;28;19931;-64
2022/03/03 01:34:36;;;;;;;;;;;;;;;-143.90;100.00;55188.66;2088673;28;19970;-64
2022/03/03 01:35:56;;;;;;;;;;;;;;;-143.90;100.00;55202.56;2088398;28;20016;-64
2022/03/03 01:37:17;;;;;;;;;;;;;;;-143.90;100.00;55190.66;2088156;28;19931;-65
2022/03/03 01:38:38;;;;;;;;;;;;;;;-143.90;100.00;55202.56;2088768;28;19966;-64
2022/03/03 01:39:59;;;;;;;;;;;;;;;-143.90;100.00;55194.63;2089267;28;19971;-65
2022/03/03 01:41:19;;;;;;;;;;;;;;;-143.90;100.00;55182.69;2088867;28;20410;-65
2022/03/03 01:42:40;;;;;;;;;;;;;;;-143.90;100.00;55212.50;2087143;28;20411;-65
2022/03/03 01:44:01;;;;;;;;;;;;;;;-143.90;100.00;55220.44;2086796;28;19935;-65
2022/03/03 01:45:22;;;;;;;;;;;;;;;-143.90;100.00;55190.66;2089542;28;19931;-64
2022/03/03 01:46:52;;;;;;;;;;;;;;;-143.90;100.00;55194.63;2088245;28;20470;-63
2022/03/03 01:48:13;;;;;;;;;;;;;;;-143.90;100.00;55210.50;2089919;28;19920;-63
2022/03/03 01:49:34;;;;;;;;;;;;;;;-143.90;100.00;55222.41;2089447;28;19963;-64
2022/03/03 01:50:55;;;;;;;;;;;;;;;-143.90;100.00;55202.56;2089660;28;19924;-64
2022/03/03 01:52:16;;;;;;;;;;;;;;;-143.90;100.00;55174.75;2095574;28;19927;-64
2022/03/03 01:53:37;;;;;;;;;;;;;;;-143.90;100.00;55198.59;2091102;28;20098;-65
2022/03/03 01:54:58;;;;;;;;;;;;;;;-143.90;100.00;55196.59;2088853;28;19927;-65
2022/03/03 01:56:19;;;;;;;;;;;;;;;-143.90;100.00;55222.41;2088714;28;19921;-65
2022/03/03 01:57:39;;;;;;;;;;;;;;;-143.90;100.00;55254.19;2080138;28;19931;-65
2022/03/03 01:59:00;;;;;;;;;;;;;;;-143.90;100.00;55198.59;2084285;28;19951;-64
2022/03/03 02:00:21;;;;;;;;;;;;;;;-143.90;100.00;55178.72;2094919;28;20513;-64
2022/03/03 02:01:42;;;;;;;;;;;;;;;-143.90;100.00;55224.41;2091943;28;19921;-64
2022/03/03 02:03:03;;;;;;;;;;;;;;;-143.90;100.00;55216.47;2096645;28;19930;-65
2022/03/03 02:04:23;;;;;;;;;;;;;;;-143.90;100.00;55178.72;2090203;28;19920;-65
2022/03/03 02:05:44;;;;;;;;;;;;;;;-143.90;100.00;55210.50;2089152;28;19921;-66
2022/03/03 02:07:05;;;;;;;;;;;;;;;-143.90;100.00;55194.63;2088743;28;19927;-64
2022/03/03 02:08:27;;;;;;;;;;;;;;;-143.90;100.00;55178.72;2088257;28;20378;-65
2022/03/03 02:09:47;;;;;;;;;;;;;;;-143.90;100.00;55186.69;2096199;28;19950;-64
2022/03/03 02:11:08;;;;;;;;;;;;;;;-143.90;100.00;55192.63;2089906;28;19927;-65
2022/03/03 02:12:29;;;;;;;;;;;;;;;-143.90;100.00;55178.72;2089052;28;19909;-65
2022/03/03 02:13:50;;;;;;;;;;;;;;;-143.90;100.00;55220.44;2087953;28;19925;-65
2022/03/03 02:15:20;;;;;;;;;;;;;;;-143.90;100.00;55212.50;2090117;28;19927;-65
2022/03/03 02:16:41;;;;;;;;;;;;;;;-143.90;100.00;55222.41;2078735;28;20047;-66
2022/03/03 02:18:01;;;;;;;;;;;;;;;-143.90;100.00;55214.47;2086226;28;20339;-65
2022/03/03 02:19:22;;;;;;;;;;;;;;;-143.90;100.00;55218.44;2087753;28;19927;-65
2022/03/03 02:20:42;;;;;;;;;;;;;;;-143.90;100.00;55196.59;2089102;28;19935;-65
2022/03/03 02:22:03;;;;;;;;;;;;;;;-143.90;100.00;55208.50;2089405;28;20015;-65
2022/03/03 02:23:24;;;;;;;;;;;;;;;-143.90;100.00;55208.50;2089386;28;19971;-65
2022/03/03 02:24:45;;;;;;;;;;;;;;;-143.90;100.00;55234.31;2089098;28;19920;-65
2022/03/03 02:26:10;;;;;;;;;;;;;;;-143.90;100.00;55186.69;2093336;28;19931;-66
2022/03/03 02:27:32;;;;;;;;;;;;;;;-143.90;100.00;55214.47;2103263;28;19942;-65
2022/03/03 02:28:53;;;;;;;;;;;;;;;-143.90;100.00;55166.81;2089350;28;19920;-65
2022/03/03 02:30:15;;;;;;;;;;;;;;;-143.90;100.00;55182.69;2095118;28;20737;-66
2022/03/03 02:31:35;;;;;;;;;;;;;;;-143.90;100.00;55214.47;2097150;28;19925;-63
2022/03/03 02:32:56;;;;;;;;;;;;;;;-143.90;100.00;55242.28;2097446;28;20474;-64
2022/03/03 02:34:17;;;;;;;;;;;;;;;-143.90;100.00;55214.47;2096801;28;19926;-64
2022/03/03 02:35:37;;;;;;;;;;;;;;;-143.90;100.00;55184.69;2095805;28;20536;-65
2022/03/03 02:36:58;;;;;;;;;;;;;;;-143.90;100.00;55234.31;2096731;28;20075;-65
2022/03/03 02:38:19;;;;;;;;;;;;;;;-143.90;100.00;55206.53;2097763;28;19926;-64
2022/03/03 02:39:40;;;;;;;;;;;;;;;-143.90;100.00;55238.31;2097175;28;19928;-65
2022/03/03 02:41:00;;;;;;;;;;;;;;;-143.90;100.00;55190.66;2096808;28;19927;-65
2022/03/03 02:42:21;;;;;;;;;;;;;;;-143.90;100.00;55204.53;2096946;28;20786;-64
2022/03/03 02:43:42;;;;;;;;;;;;;;;-143.90;100.00;55196.59;2096260;28;20585;-64
2022/03/03 02:45:03;;;;;;;;;;;;;;;-143.90;100.00;55234.31;2098676;28;20383;-65
2022/03/03 02:46:24;;;;;;;;;;;;;;;-143.90;100.00;55198.59;2097859;28;19986;-66
2022/03/03 02:47:45;;;;;;;;;;;;;;;-143.90;100.00;55194.63;2098370;28;20030;-65
2022/03/03 02:49:06;;;;;;;;;;;;;;;-143.90;100.00;55222.41;2098267;28;19967;-65
2022/03/03 02:50:28;;;;;;;;;;;;;;;-143.90;100.00;55214.47;2096055;28;20023;-64
2022/03/03 02:51:50;;;;;;;;;;;;;;;-143.90;100.00;55206.53;2098017;28;20361;-65
2022/03/03 02:53:11;;;;;;;;;;;;;;;-143.90;100.00;55210.50;2097345;28;20043;-65
2022/03/03 02:54:31;;;;;;;;;;;;;;;-143.90;100.00;55184.69;2096041;28;19931;-65
2022/03/03 02:55:52;;;;;;;;;;;;;;;-143.90;100.00;55190.66;2095878;28;19920;-64
2022/03/03 02:58:52;;;;;;;;;;;;;;;-143.90;100.00;55200.56;2096490;28;20032;-65
2022/03/03 03:00:13;;;;;;;;;;;;;;;-143.90;100.00;55178.72;2096850;28;19920;-65
2022/03/03 03:01:33;;;;;;;;;;;;;;;-143.90;100.00;55224.41;2097279;28;20384;-65
2022/03/03 03:02:54;;;;;;;;;;;;;;;-143.90;100.00;55202.56;2097271;28;20773;-65
2022/03/03 03:04:15;;;;;;;;;;;;;;;-143.90;100.00;55194.63;2098773;28;19927;-65
2022/03/03 03:05:36;;;;;;;;;;;;;;;-143.90;100.00;55208.50;2097352;28;19924;-65
2022/03/03 03:06:57;;;;;;;;;;;;;;;-143.90;100.00;55214.47;2104090;28;20007;-65
2022/03/03 03:08:18;;;;;;;;;;;;;;;-143.90;100.00;55182.69;2099671;28;19920;-65
2022/03/03 03:09:38;;;;;;;;;;;;;;;-143.90;100.00;55202.56;2096873;28;19920;-65
2022/03/03 03:10:59;;;;;;;;;;;;;;;-143.90;100.00;55206.53;2096384;28;19927;-66
2022/03/03 03:12:20;;;;;;;;;;;;;;;-143.90;100.00;55228.38;2096837;28;20019;-65
2022/03/03 03:13:40;;;;;;;;;;;;;;;-143.90;100.00;55222.41;2097699;28;20331;-65
2022/03/03 03:15:01;;;;;;;;;;;;;;;-143.90;100.00;55238.31;2097902;28;19924;-66
2022/03/03 03:16:22;;;;;;;;;;;;;;;-143.90;100.00;55238.31;2098236;28;20335;-65
2022/03/03 03:17:42;;;;;;;;;;;;;;;-143.90;100.00;55188.66;2097051;28;20299;-65
2022/03/03 03:19:03;;;;;;;;;;;;;;;-143.90;100.00;55226.38;2098516;28;20003;-64
2022/03/03 03:20:24;;;;;;;;;;;;;;;-143.90;100.00;55226.38;2097987;28;19926;-65
2022/03/03 03:21:44;;;;;;;;;;;;;;;-143.90;100.00;55204.53;2098499;28;19920;-66
2022/03/03 03:23:09;;;;;;;;;;;;;;;-143.90;100.00;55222.41;2097728;28;19920;-65
2022/03/03 03:24:29;;;;;;;;;;;;;;;-143.90;100.00;55218.44;2097736;28;19928;-65
2022/03/03 03:25:50;;;;;;;;;;;;;;;-143.90;100.00;55230.34;2096162;28;19925;-66
2022/03/03 03:27:11;;;;;;;;;;;;;;;-143.90;100.00;55190.66;2096888;28;19927;-64
2022/03/03 03:28:32;;;;;;;;;;;;;;;-143.90;100.00;55242.28;2096467;28;19971;-63
2022/03/03 03:29:52;;;;;;;;;;;;;;;-143.90;100.00;55214.47;2099163;28;19920;-62
2022/03/03 03:31:13;;;;;;;;;;;;;;;-143.90;100.00;55210.50;2099487;28;19920;-64
2022/03/03 03:32:33;;;;;;;;;;;;;;;-143.90;100.00;55238.31;2099151;28;20054;-65
2022/03/03 03:33:54;;;;;;;;;;;;;;;-143.90;100.00;55222.41;2097903;28;19986;-62
2022/03/03 03:35:15;;;;;;;;;;;;;;;-143.90;100.00;55208.50;2097553;28;20348;-65
2022/03/03 03:36:35;;;;;;;;;;;;;;;-143.90;100.00;55210.50;2091250;28;19928;-63
2022/03/03 03:37:56;;;;;;;;;;;;;;;-143.90;100.00;55198.59;2095436;28;20027;-64
2022/03/03 03:39:17;;;;;;;;;;;;;;;-143.90;100.00;55250.22;2098888;28;19927;-66
2022/03/03 03:40:37;;;;;;;;;;;;;;;-143.90;100.00;55170.78;2098754;28;19993;-63
2022/03/03 03:41:58;;;;;;;;;;;;;;;-143.90;100.00;55210.50;2098018;28;19920;-65
2022/03/03 03:43:19;;;;;;;;;;;;;;;-143.90;100.00;55202.56;2097394;28;19920;-65
2022/03/03 03:44:39;;;;;;;;;;;;;;;-143.90;100.00;55214.47;2097890;28;20022;-66
2022/03/03 03:46:00;;;;;;;;;;;;;;;-143.90;100.00;55202.56;2098523;28;20003;-66
2022/03/03 03:47:21;;;;;;;;;;;;;;;-143.90;100.00;55170.78;2098584;28;19933;-62
2022/03/03 03:48:41;;;;;;;;;;;;;;;-143.90;100.00;55234.31;2098657;28;20352;-65
2022/03/03 03:50:04;;;;;;;;;;;;;;;-143.90;100.00;55202.56;2097000;28;19928;-62
2022/03/03 03:51:25;;;;;;;;;;;;;;;-143.90;100.00;55214.47;2095042;28;20396;-63
2022/03/03 03:52:45;;;;;;;;;;;;;;;-143.90;100.00;55206.53;2098271;28;19947;-63
2022/03/03 03:54:06;;;;;;;;;;;;;;;-143.90;100.00;55190.66;2097513;28;19920;-63
2022/03/03 03:55:26;;;;;;;;;;;;;;;-143.90;100.00;55190.66;2098361;28;19926;-63
2022/03/03 03:56:47;;;;;;;;;;;;;;;-143.90;100.00;55182.69;2098109;28;19928;-63
2022/03/03 03:58:08;;;;;;;;;;;;;;;-143.90;100.00;55240.28;2098488;28;19920;-62
2022/03/03 03:59:28;;;;;;;;;;;;;;;-143.90;100.00;55194.63;2097290;28;19943;-64
2022/03/03 04:00:49;;;;;;;;;;;;;;;-143.90;100.00;55214.47;2097446;28;19923;-63
2022/03/03 04:02:10;;;;;;;;;;;;;;;-143.90;100.00;55210.50;2098078;28;20007;-63
2022/03/03 04:03:31;;;;;;;;;;;;;;;-143.90;100.00;55214.47;2099264;28;20007;-64
2022/03/03 04:04:52;;;;;;;;;;;;;;;-143.90;100.00;55246.25;2099685;28;19920;-62
2022/03/03 04:06:12;;;;;;;;;;;;;;;-143.90;100.00;55224.41;2106176;28;20002;-64
2022/03/03 04:07:33;;;;;;;;;;;;;;;-143.90;100.00;55206.53;2101101;28;20370;-63
2022/03/03 04:08:54;;;;;;;;;;;;;;;-143.90;100.00;55210.50;2098434;28;19920;-64
2022/03/03 04:10:15;;;;;;;;;;;;;;;-143.90;100.00;55202.56;2098354;28;19952;-64
2022/03/03 04:11:35;;;;;;;;;;;;;;;-143.90;100.00;55212.50;2099174;28;20032;-63
2022/03/03 04:12:56;;;;;;;;;;;;;;;-143.90;100.00;55234.31;2098602;28;19924;-63
2022/03/03 04:14:17;;;;;;;;;;;;;;;-143.90;100.00;55182.69;2099135;28;19920;-64
2022/03/03 04:15:37;;;;;;;;;;;;;;;-143.90;100.00;55214.47;2097532;28;19920;-64
2022/03/03 04:16:58;;;;;;;;;;;;;;;-143.90;100.00;55170.78;2097480;28;19921;-63
2022/03/03 04:18:19;;;;;;;;;;;;;;;-143.90;100.00;55196.59;2097157;28;20455;-64
2022/03/03 04:19:40;;;;;;;;;;;;;;;-143.90;100.00;55226.38;2098784;28;19969;-63
2022/03/03 04:21:01;;;;;;;;;;;;;;;-143.90;100.00;55192.63;2098464;28;19927;-62
2022/03/03 04:22:21;;;;;;;;;;;;;;;-143.90;100.00;55206.53;2097460;28;19997;-64
2022/03/03 04:23:42;;;;;;;;;;;;;;;-143.90;100.00;55178.72;2096709;28;19931;-63
2022/03/03 04:25:03;;;;;;;;;;;;;;;-143.90;100.00;55214.47;2098413;28;19950;-63
2022/03/03 04:26:24;;;;;;;;;;;;;;;-143.90;100.00;55222.41;2098244;28;19956;-62
2022/03/03 04:27:45;;;;;;;;;;;;;;;-143.90;100.00;55200.56;2100206;27;19920;-65
2022/03/03 04:29:05;;;;;;;;;;;;;;;-143.90;100.00;55222.41;2089982;28;19924;-64
2022/03/03 04:30:26;;;;;;;;;;;;;;;-143.90;100.00;55266.09;2095407;28;20007;-64
2022/03/03 04:31:48;;;;;;;;;;;;;;;-143.90;100.00;55230.34;2098724;28;19920;-64
2022/03/03 04:33:08;;;;;;;;;;;;;;;-143.90;100.00;55190.66;2098512;28;19928;-67
2022/03/03 04:34:29;;;;;;;;;;;;;;;-143.90;100.00;55194.63;2097661;28;20432;-64
2022/03/03 04:35:50;;;;;;;;;;;;;;;-143.90;100.00;55198.59;2098549;28;19927;-64
2022/03/03 04:37:10;;;;;;;;;;;;;;;-143.90;100.00;55208.50;2098928;28;19920;-64
2022/03/03 04:38:31;;;;;;;;;;;;;;;-143.90;100.00;55202.56;2095703;28;19924;-65
2022/03/03 04:39:52;;;;;;;;;;;;;;;-143.90;100.00;55188.66;2097731;28;19972;-64
2022/03/03 04:41:13;;;;;;;;;;;;;;;-143.90;100.00;55198.59;2096912;28;20362;-63
2022/03/03 04:42:33;;;;;;;;;;;;;;;-143.90;100.00;55198.59;2098128;28;19921;-65
2022/03/03 04:43:54;;;;;;;;;;;;;;;-143.90;100.00;55188.66;2099435;27;19924;-63
2022/03/03 04:45:14;;;;;;;;;;;;;;;-143.90;100.00;55174.75;2097873;28;19921;-65
2022/03/03 04:46:35;;;;;;;;;;;;;;;-143.90;100.00;55218.44;2097306;28;20035;-65
2022/03/03 04:47:56;;;;;;;;;;;;;;;-143.90;100.00;55244.25;2098526;28;20584;-63
2022/03/03 04:49:17;;;;;;;;;;;;;;;-143.90;100.00;55190.66;2099036;28;19920;-65
2022/03/03 04:50:37;;;;;;;;;;;;;;;-143.90;100.00;55190.66;2096973;28;20031;-64
2022/03/03 04:51:58;;;;;;;;;;;;;;;-143.90;100.00;55202.56;2105858;28;19920;-64
2022/03/03 04:53:18;;;;;;;;;;;;;;;-143.90;100.00;55236.31;2100126;28;19997;-64
2022/03/03 04:54:39;;;;;;;;;;;;;;;-143.90;100.00;55202.56;2097790;28;19974;-64
2022/03/03 04:56:00;;;;;;;;;;;;;;;-143.90;100.00;55214.47;2106350;28;20358;-65
2022/03/03 04:57:22;;;;;;;;;;;;;;;-143.90;100.00;55258.16;2098815;28;19923;-65
2022/03/03 04:58:44;;;;;;;;;;;;;;;-143.90;100.00;55182.69;2097358;28;19928;-65
2022/03/03 05:00:06;;;;;;;;;;;;;;;-143.90;100.00;55216.47;2097917;28;19920;-65
2022/03/03 05:01:26;;;;;;;;;;;;;;;-143.90;100.00;55190.66;2097386;28;19915;-64
2022/03/03 05:02:47;;;;;;;;;;;;;;;-143.90;100.00;55186.69;2097651;28;19948;-65
2022/03/03 05:04:08;;;;;;;;;;;;;;;-143.90;100.00;55206.53;2087730;28;19916;-65
2022/03/03 05:05:28;;;;;;;;;;;;;;;-143.90;100.00;55222.41;2096978;27;19947;-65
2022/03/03 05:06:49;;;;;;;;;;;;;;;-143.90;100.00;55190.66;2087992;28;19967;-65
2022/03/03 05:08:10;;;;;;;;;;;;;;;-143.90;100.00;55190.66;2094100;28;19928;-65
2022/03/03 05:09:32;;;;;;;;;;;;;;;-143.90;100.00;55186.69;2097418;28;19953;-65
2022/03/03 05:10:53;;;;;;;;;;;;;;;-143.90;100.00;55154.91;2098050;28;19959;-65
2022/03/03 05:12:13;;;;;;;;;;;;;;;-143.90;100.00;55190.66;2095471;28;19993;-65
2022/03/03 05:13:34;;;;;;;;;;;;;;;-143.90;100.00;55170.78;2096323;28;20395;-65
2022/03/03 05:14:56;;;;;;;;;;;;;;;-143.90;100.00;55198.59;2097342;28;20398;-65
2022/03/03 05:16:17;;;;;;;;;;;;;;;-143.90;100.00;55254.19;2096967;28;19935;-64
2022/03/03 05:17:37;;;;;;;;;;;;;;;-143.90;100.00;55166.81;2095810;28;20003;-65
2022/03/03 05:18:58;;;;;;;;;;;;;;;-143.90;100.00;55214.47;2098506;28;19916;-65
2022/03/03 05:20:19;;;;;;;;;;;;;;;-143.90;100.00;55182.69;2099284;28;19920;-64
2022/03/03 05:21:39;;;;;;;;;;;;;;;-143.90;100.00;55206.53;2096782;28;19916;-65
2022/03/03 05:23:00;;;;;;;;;;;;;;;-143.90;100.00;55244.25;2096720;28;19920;-65
2022/03/03 05:24:21;;;;;;;;;;;;;;;-143.90;100.00;55194.63;2088947;28;19924;-65
2022/03/03 05:25:41;;;;;;;;;;;;;;;-143.90;100.00;55206.53;2094671;28;20003;-65
2022/03/03 05:27:03;;;;;;;;;;;;;;;-143.90;100.00;55186.69;2097287;28;19920;-65
2022/03/03 05:28:23;;;;;;;;;;;;;;;-143.90;100.00;55214.47;2098240;28;19920;-64
2022/03/03 05:29:44;;;;;;;;;;;;;;;-143.90;100.00;55230.34;2097576;28;19926;-65
2022/03/03 05:31:04;;;;;;;;;;;;;;;-143.90;100.00;55208.50;2097255;28;19974;-62
2022/03/03 05:32:25;;;;;;;;;;;;;;;-143.90;100.00;55206.53;2096419;28;19935;-64
2022/03/03 05:33:46;;;;;;;;;;;;;;;-143.90;100.00;55238.31;2097359;28;19931;-64
2022/03/03 05:35:07;;;;;;;;;;;;;;;-143.90;100.00;55190.66;2105656;28;19993;-65
2022/03/03 05:36:28;;;;;;;;;;;;;;;-143.90;100.00;55200.56;2101531;28;19920;-63
2022/03/03 05:37:48;;;;;;;;;;;;;;;-143.90;100.00;55210.50;2105102;28;19945;-63
2022/03/03 05:39:09;;;;;;;;;;;;;;;-143.90;100.00;55162.84;2100737;28;19927;-66
2022/03/03 05:40:31;;;;;;;;;;;;;;;-143.90;100.00;55222.41;2096980;28;19916;-64
2022/03/03 05:41:53;;;;;;;;;;;;;;;-143.90;100.00;55178.72;2096492;28;19924;-65
2022/03/03 05:43:14;;;;;;;;;;;;;;;-143.90;100.00;55182.69;2097750;28;19963;-64
2022/03/03 05:44:34;;;;;;;;;;;;;;;-143.90;100.00;55202.56;2096819;28;19920;-64
2022/03/03 05:45:55;;;;;;;;;;;;;;;-143.90;100.00;55200.56;2098143;28;19998;-65
2022/03/03 05:47:16;;;;;;;;;;;;;;;-143.90;100.00;55202.56;2097336;28;19947;-63
2022/03/03 05:48:37;;;;;;;;;;;;;;;-143.90;100.00;55222.41;2097850;28;20287;-65
2022/03/03 05:49:58;;;;;;;;;;;;;;;-143.90;100.00;55206.53;2097332;28;20418;-64
2022/03/03 05:51:19;;;;;;;;;;;;;;;-143.90;100.00;55186.69;2097211;28;20716;-65
2022/03/03 05:52:40;;;;;;;;;;;;;;;-143.90;100.00;55198.59;2097699;28;19920;-65
2022/03/03 05:54:01;;;;;;;;;;;;;;;-143.90;100.00;55190.66;2096945;28;20011;-64
2022/03/03 05:55:22;;;;;;;;;;;;;;;-143.90;100.00;55208.50;2097850;28;19932;-64
2022/03/03 05:56:45;;;;;;;;;;;;;;;-143.90;100.00;55210.50;2097174;28;19916;-63
2022/03/03 05:58:05;;;;;;;;;;;;;;;-143.90;100.00;55226.38;2103949;28;20445;-64
2022/03/03 05:59:26;;;;;;;;;;;;;;;-143.90;100.00;55190.66;2091292;28;19923;-68
2022/03/03 06:00:48;;;;;;;;;;;;;;;-143.90;100.00;55230.34;2103273;28;19920;-64
2022/03/03 06:02:09;;;;;;;;;;;;;;;-143.90;100.00;55176.75;2100476;28;19917;-65
2022/03/03 06:03:30;;;;;;;;;;;;;;;-143.90;100.00;55210.50;2096428;28;19931;-64
2022/03/03 06:04:51;;;;;;;;;;;;;;;-143.90;100.00;55198.59;2096867;28;20201;-63
2022/03/03 06:06:19;;;;;;;;;;;;;;;-143.90;100.00;55218.44;2096388;28;19931;-64
2022/03/03 06:07:41;;;;;;;;;;;;;;;-143.90;100.00;55206.53;2106241;27;19916;-64
2022/03/03 06:09:07;;;;;;;;;;;;;;;-143.90;100.00;55210.50;2100243;28;19985;-64
2022/03/03 06:10:31;;;;;;;;;;;;;;;-143.90;100.00;55178.72;2105229;28;20426;-63
2022/03/03 06:12:14;;;;;;;;;;;;;;;-143.90;100.00;55230.34;2091071;28;19955;-63
2022/03/03 06:13:44;;;;;;;;;;;;;;;-143.90;100.00;55206.53;2105119;28;19938;-65
2022/03/03 06:15:06;;;;;;;;;;;;;;;-143.90;100.00;55222.41;2098233;28;19916;-64
2022/03/03 06:16:26;;;;;;;;;;;;;;;-143.90;100.00;55166.81;2087581;28;19920;-64
2022/03/03 06:17:47;;;;;;;;;;;;;;;-143.90;100.00;55212.50;2100968;28;20394;-64
2022/03/03 06:19:07;;;;;;;;;;;;;;;-143.90;100.00;55216.47;2091115;28;19951;-63
2022/03/03 06:20:28;;;;;;;;;;;;;;;-143.90;100.00;55196.59;2095001;28;19917;-64
2022/03/03 06:21:49;;;;;;;;;;;;;;;-143.90;100.00;55196.59;2097183;28;20272;-64
2022/03/03 06:23:09;;;;;;;;;;;;;;;-143.90;100.00;55182.69;2096904;28;19921;-65
2022/03/03 06:24:30;;;;;;;;;;;;;;;-143.90;100.00;55180.72;2096314;28;19923;-64
2022/03/03 06:26:03;;;;;;;;;;;;;;;-143.90;100.00;55190.66;2096546;28;19920;-64
2022/03/03 06:27:24;;;;;;;;;;;;;;;-143.90;100.00;55194.63;2096946;28;19927;-64
2022/03/03 06:28:45;;;;;;;;;;;;;;;-143.90;100.00;55216.47;2103900;28;19958;-65
2022/03/03 06:30:06;;;;;;;;;;;;;;;-143.90;100.00;55172.78;2099762;28;19925;-65
2022/03/03 06:31:27;;;;;;;;;;;;;;;-143.90;100.00;55222.41;2097950;28;19927;-63
2022/03/03 06:32:48;;;;;;;;;;;;;;;-143.90;100.00;55170.78;2096772;28;19923;-63
2022/03/03 06:34:09;;;;;;;;;;;;;;;-143.90;100.00;55202.56;2098078;28;19921;-63
2022/03/03 06:35:35;;;;;;;;;;;;;;;-143.90;100.00;55226.38;2097094;28;19924;-65
2022/03/03 06:36:56;;;;;;;;;;;;;;;-143.90;100.00;55198.59;2088181;28;19921;-64
2022/03/03 06:38:17;;;;;;;;;;;;;;;-143.90;100.00;55210.50;2102446;28;20021;-65
2022/03/03 06:39:37;;;;;;;;;;;;;;;-143.90;100.00;55170.78;2100293;28;20015;-65
2022/03/03 06:40:58;;;;;;;;;;;;;;;-143.90;100.00;55204.53;2096795;28;19943;-64
2022/03/03 06:42:19;;;;;;;;;;;;;;;-143.90;100.00;55200.56;2096991;28;19924;-65
2022/03/03 06:43:41;;;;;;;;;;;;;;;-143.90;100.00;55186.69;2097185;28;19964;-64
2022/03/03 06:45:02;;;;;;;;;;;;;;;-143.90;100.00;55254.19;2096905;28;20444;-65
2022/03/03 06:46:23;;;;;;;;;;;;;;;-143.90;100.00;55206.53;2096034;28;20578;-64
2022/03/03 06:47:46;;;;;;;;;;;;;;;-143.90;100.00;55196.59;2096993;28;19923;-64